sensor_id;sensor_type;location;lat;lon;timestamp;P1;durP1;ratioP1;P2;durP2;ratioP2
69401;SDS011;56589;51.992;5.924;2023-03-11T00:00:23;4.47;;;1.30;;
69401;SDS011;56589;51.992;5.924;2023-03-11T00:02:53;10.18;;;1.50;;
69401;SDS011;56589;51.992;5.924;2023-03-11T00:05:25;7.50;;;1.42;;
69401;SDS011;56589;51.992;5.924;2023-03-11T00:07:53;7.55;;;2.10;;
69401;SDS011;56589;51.992;5.924;2023-03-11T00:10:26;17.02;;;2.33;;
69401;SDS011;56589;51.992;5.924;2023-03-11T00:12:55;7.43;;;1.40;;
69401;SDS011;56589;51.992;5.924;2023-03-11T00:15:21;8.43;;;1.30;;
69401;SDS011;56589;51.992;5.924;2023-03-11T00:17:47;13.18;;;1.75;;
69401;SDS011;56589;51.992;5.924;2023-03-11T00:20:15;15.82;;;2.05;;
69401;SDS011;56589;51.992;5.924;2023-03-11T00:22:46;3.25;;;1.40;;
69401;SDS011;56589;51.992;5.924;2023-03-11T00:25:12;7.00;;;1.40;;
69401;SDS011;56589;51.992;5.924;2023-03-11T00:27:41;7.68;;;1.73;;
69401;SDS011;56589;51.992;5.924;2023-03-11T00:30:08;5.00;;;1.02;;
69401;SDS011;56589;51.992;5.924;2023-03-11T00:32:36;5.38;;;1.20;;
69401;SDS011;56589;51.992;5.924;2023-03-11T00:35:04;8.10;;;1.60;;
69401;SDS011;56589;51.992;5.924;2023-03-11T00:37:31;11.25;;;1.60;;
69401;SDS011;56589;51.992;5.924;2023-03-11T00:39:57;5.10;;;1.48;;
69401;SDS011;56589;51.992;5.924;2023-03-11T00:42:24;14.77;;;1.85;;
69401;SDS011;56589;51.992;5.924;2023-03-11T00:44:52;9.60;;;1.60;;
69401;SDS011;56589;51.992;5.924;2023-03-11T00:47:18;6.45;;;1.42;;
69401;SDS011;56589;51.992;5.924;2023-03-11T00:49:44;5.55;;;1.48;;
69401;SDS011;56589;51.992;5.924;2023-03-11T00:52:10;10.48;;;2.00;;
69401;SDS011;56589;51.992;5.924;2023-03-11T00:54:36;10.25;;;1.60;;
69401;SDS011;56589;51.992;5.924;2023-03-11T00:57:02;7.55;;;2.00;;
69401;SDS011;56589;51.992;5.924;2023-03-11T00:59:28;9.02;;;1.58;;
69401;SDS011;56589;51.992;5.924;2023-03-11T01:01:56;8.27;;;1.92;;
69401;SDS011;56589;51.992;5.924;2023-03-11T01:04:22;8.65;;;1.70;;
69401;SDS011;56589;51.992;5.924;2023-03-11T01:06:48;8.45;;;1.40;;
69401;SDS011;56589;51.992;5.924;2023-03-11T01:09:14;4.82;;;1.40;;
69401;SDS011;56589;51.992;5.924;2023-03-11T01:11:40;8.13;;;1.30;;
69401;SDS011;56589;51.992;5.924;2023-03-11T01:14:06;8.00;;;1.33;;
69401;SDS011;56589;51.992;5.924;2023-03-11T01:16:31;7.97;;;1.40;;
69401;SDS011;56589;51.992;5.924;2023-03-11T01:19:00;5.32;;;1.33;;
69401;SDS011;56589;51.992;5.924;2023-03-11T01:21:26;10.95;;;1.45;;
69401;SDS011;56589;51.992;5.924;2023-03-11T01:23:52;6.28;;;2.05;;
69401;SDS011;56589;51.992;5.924;2023-03-11T01:26:17;4.90;;;1.23;;
69401;SDS011;56589;51.992;5.924;2023-03-11T01:28:43;4.47;;;1.10;;
69401;SDS011;56589;51.992;5.924;2023-03-11T01:31:09;5.50;;;1.17;;
69401;SDS011;56589;51.992;5.924;2023-03-11T01:33:35;5.82;;;1.05;;
69401;SDS011;56589;51.992;5.924;2023-03-11T01:36:04;4.60;;;1.10;;
69401;SDS011;56589;51.992;5.924;2023-03-11T01:38:31;7.50;;;1.30;;
69401;SDS011;56589;51.992;5.924;2023-03-11T01:40:56;7.30;;;1.30;;
69401;SDS011;56589;51.992;5.924;2023-03-11T01:46:13;7.07;;;1.42;;
69401;SDS011;56589;51.992;5.924;2023-03-11T01:48:41;10.15;;;1.58;;
69401;SDS011;56589;51.992;5.924;2023-03-11T01:51:15;7.15;;;1.27;;
69401;SDS011;56589;51.992;5.924;2023-03-11T01:53:46;3.40;;;0.98;;
69401;SDS011;56589;51.992;5.924;2023-03-11T01:56:12;5.95;;;1.27;;
69401;SDS011;56589;51.992;5.924;2023-03-11T01:58:39;5.13;;;1.10;;
69401;SDS011;56589;51.992;5.924;2023-03-11T02:01:10;5.90;;;1.40;;
69401;SDS011;56589;51.992;5.924;2023-03-11T02:03:38;11.32;;;1.48;;
69401;SDS011;56589;51.992;5.924;2023-03-11T02:06:06;5.15;;;0.90;;
69401;SDS011;56589;51.992;5.924;2023-03-11T02:08:39;8.18;;;1.40;;
69401;SDS011;56589;51.992;5.924;2023-03-11T02:11:07;5.40;;;1.52;;
69401;SDS011;56589;51.992;5.924;2023-03-11T02:13:40;9.38;;;1.77;;
69401;SDS011;56589;51.992;5.924;2023-03-11T02:16:09;4.10;;;1.10;;
69401;SDS011;56589;51.992;5.924;2023-03-11T02:18:35;6.15;;;1.17;;
69401;SDS011;56589;51.992;5.924;2023-03-11T02:21:05;7.93;;;1.83;;
69401;SDS011;56589;51.992;5.924;2023-03-11T02:23:46;4.20;;;1.10;;
69401;SDS011;56589;51.992;5.924;2023-03-11T02:26:22;6.95;;;1.27;;
69401;SDS011;56589;51.992;5.924;2023-03-11T02:29:02;6.90;;;1.33;;
69401;SDS011;56589;51.992;5.924;2023-03-11T02:31:31;6.35;;;1.40;;
69401;SDS011;56589;51.992;5.924;2023-03-11T02:34:01;12.55;;;2.08;;
69401;SDS011;56589;51.992;5.924;2023-03-11T02:36:35;3.47;;;1.20;;
69401;SDS011;56589;51.992;5.924;2023-03-11T02:39:03;6.82;;;1.08;;
69401;SDS011;56589;51.992;5.924;2023-03-11T02:41:30;10.95;;;1.25;;
69401;SDS011;56589;51.992;5.924;2023-03-11T02:43:59;8.90;;;1.40;;
69401;SDS011;56589;51.992;5.924;2023-03-11T02:46:31;10.68;;;1.58;;
69401;SDS011;56589;51.992;5.924;2023-03-11T02:48:57;3.47;;;1.15;;
69401;SDS011;56589;51.992;5.924;2023-03-11T02:51:24;8.93;;;1.50;;
69401;SDS011;56589;51.992;5.924;2023-03-11T02:53:51;7.18;;;1.83;;
69401;SDS011;56589;51.992;5.924;2023-03-11T02:56:23;3.30;;;1.25;;
69401;SDS011;56589;51.992;5.924;2023-03-11T02:58:49;6.72;;;0.98;;
69401;SDS011;56589;51.992;5.924;2023-03-11T03:01:18;9.40;;;1.15;;
69401;SDS011;56589;51.992;5.924;2023-03-11T03:03:43;5.43;;;1.20;;
69401;SDS011;56589;51.992;5.924;2023-03-11T03:06:09;11.25;;;1.55;;
69401;SDS011;56589;51.992;5.924;2023-03-11T03:08:35;5.25;;;1.05;;
69401;SDS011;56589;51.992;5.924;2023-03-11T03:11:01;3.35;;;1.00;;
69401;SDS011;56589;51.992;5.924;2023-03-11T03:13:27;13.60;;;1.27;;
69401;SDS011;56589;51.992;5.924;2023-03-11T03:15:54;8.57;;;1.10;;
69401;SDS011;56589;51.992;5.924;2023-03-11T03:18:22;6.10;;;1.90;;
69401;SDS011;56589;51.992;5.924;2023-03-11T03:20:48;6.13;;;1.63;;
69401;SDS011;56589;51.992;5.924;2023-03-11T03:23:14;7.15;;;1.63;;
69401;SDS011;56589;51.992;5.924;2023-03-11T03:25:40;6.25;;;1.17;;
69401;SDS011;56589;51.992;5.924;2023-03-11T03:28:07;4.38;;;1.33;;
69401;SDS011;56589;51.992;5.924;2023-03-11T03:30:33;7.18;;;1.10;;
69401;SDS011;56589;51.992;5.924;2023-03-11T03:33:02;3.97;;;1.10;;
69401;SDS011;56589;51.992;5.924;2023-03-11T03:35:31;7.47;;;1.25;;
69401;SDS011;56589;51.992;5.924;2023-03-11T03:37:58;3.45;;;0.95;;
69401;SDS011;56589;51.992;5.924;2023-03-11T03:40:24;4.82;;;1.10;;
69401;SDS011;56589;51.992;5.924;2023-03-11T03:42:51;5.60;;;0.98;;
69401;SDS011;56589;51.992;5.924;2023-03-11T03:45:16;3.92;;;1.08;;
69401;SDS011;56589;51.992;5.924;2023-03-11T03:47:44;2.67;;;1.05;;
69401;SDS011;56589;51.992;5.924;2023-03-11T03:50:11;6.80;;;1.20;;
69401;SDS011;56589;51.992;5.924;2023-03-11T03:52:39;3.80;;;1.10;;
69401;SDS011;56589;51.992;5.924;2023-03-11T03:55:05;9.18;;;1.25;;
69401;SDS011;56589;51.992;5.924;2023-03-11T03:57:32;4.03;;;0.93;;
69401;SDS011;56589;51.992;5.924;2023-03-11T03:59:58;6.45;;;1.40;;
69401;SDS011;56589;51.992;5.924;2023-03-11T04:02:24;6.88;;;1.15;;
69401;SDS011;56589;51.992;5.924;2023-03-11T04:04:50;7.95;;;1.10;;
69401;SDS011;56589;51.992;5.924;2023-03-11T04:07:16;7.25;;;1.20;;
69401;SDS011;56589;51.992;5.924;2023-03-11T04:09:44;5.68;;;0.98;;
69401;SDS011;56589;51.992;5.924;2023-03-11T04:12:10;6.97;;;1.30;;
69401;SDS011;56589;51.992;5.924;2023-03-11T04:14:39;7.40;;;1.65;;
69401;SDS011;56589;51.992;5.924;2023-03-11T04:17:05;3.33;;;0.88;;
69401;SDS011;56589;51.992;5.924;2023-03-11T04:19:31;4.15;;;0.95;;
69401;SDS011;56589;51.992;5.924;2023-03-11T04:21:57;4.53;;;1.08;;
69401;SDS011;56589;51.992;5.924;2023-03-11T04:24:22;6.15;;;1.30;;
69401;SDS011;56589;51.992;5.924;2023-03-11T04:26:51;5.85;;;1.10;;
69401;SDS011;56589;51.992;5.924;2023-03-11T04:29:17;7.05;;;1.00;;
69401;SDS011;56589;51.992;5.924;2023-03-11T04:31:42;4.72;;;1.20;;
69401;SDS011;56589;51.992;5.924;2023-03-11T04:34:08;6.25;;;1.00;;
69401;SDS011;56589;51.992;5.924;2023-03-11T04:36:34;7.95;;;1.50;;
69401;SDS011;56589;51.992;5.924;2023-03-11T04:39:00;2.90;;;0.73;;
69401;SDS011;56589;51.992;5.924;2023-03-11T04:41:27;6.05;;;1.20;;
69401;SDS011;56589;51.992;5.924;2023-03-11T04:43:55;3.17;;;1.00;;
69401;SDS011;56589;51.992;5.924;2023-03-11T04:46:23;3.70;;;1.05;;
69401;SDS011;56589;51.992;5.924;2023-03-11T04:48:49;3.75;;;1.30;;
69401;SDS011;56589;51.992;5.924;2023-03-11T04:51:15;3.53;;;0.90;;
69401;SDS011;56589;51.992;5.924;2023-03-11T04:53:40;7.82;;;1.20;;
69401;SDS011;56589;51.992;5.924;2023-03-11T04:56:06;5.53;;;1.13;;
69401;SDS011;56589;51.992;5.924;2023-03-11T04:58:32;6.70;;;0.90;;
69401;SDS011;56589;51.992;5.924;2023-03-11T05:01:01;4.90;;;1.15;;
69401;SDS011;56589;51.992;5.924;2023-03-11T05:03:27;5.03;;;1.13;;
69401;SDS011;56589;51.992;5.924;2023-03-11T05:05:53;5.05;;;1.00;;
69401;SDS011;56589;51.992;5.924;2023-03-11T05:08:18;5.50;;;1.42;;
69401;SDS011;56589;51.992;5.924;2023-03-11T05:10:44;4.03;;;1.15;;
69401;SDS011;56589;51.992;5.924;2023-03-11T05:13:12;5.32;;;1.27;;
69401;SDS011;56589;51.992;5.924;2023-03-11T05:15:38;2.95;;;1.05;;
69401;SDS011;56589;51.992;5.924;2023-03-11T05:18:07;6.40;;;1.48;;
69401;SDS011;56589;51.992;5.924;2023-03-11T05:20:32;5.95;;;1.33;;
69401;SDS011;56589;51.992;5.924;2023-03-11T05:22:58;9.15;;;1.67;;
69401;SDS011;56589;51.992;5.924;2023-03-11T05:25:24;7.75;;;1.25;;
69401;SDS011;56589;51.992;5.924;2023-03-11T05:27:50;2.83;;;0.88;;
69401;SDS011;56589;51.992;5.924;2023-03-11T05:30:16;4.97;;;1.02;;
69401;SDS011;56589;51.992;5.924;2023-03-11T05:32:42;7.55;;;1.50;;
69401;SDS011;56589;51.992;5.924;2023-03-11T05:35:10;6.70;;;1.00;;
69401;SDS011;56589;51.992;5.924;2023-03-11T05:37:36;5.20;;;0.90;;
69401;SDS011;56589;51.992;5.924;2023-03-11T05:40:02;2.97;;;0.90;;
69401;SDS011;56589;51.992;5.924;2023-03-11T05:42:30;1.77;;;0.88;;
69401;SDS011;56589;51.992;5.924;2023-03-11T05:44:55;4.22;;;1.05;;
69401;SDS011;56589;51.992;5.924;2023-03-11T05:47:21;8.38;;;0.90;;
69401;SDS011;56589;51.992;5.924;2023-03-11T05:49:47;7.60;;;1.33;;
69401;SDS011;56589;51.992;5.924;2023-03-11T05:52:16;4.68;;;1.08;;
69401;SDS011;56589;51.992;5.924;2023-03-11T05:54:42;7.80;;;1.17;;
69401;SDS011;56589;51.992;5.924;2023-03-11T05:57:07;8.95;;;1.67;;
69401;SDS011;56589;51.992;5.924;2023-03-11T05:59:33;2.97;;;0.93;;
69401;SDS011;56589;51.992;5.924;2023-03-11T06:01:59;6.07;;;0.98;;
69401;SDS011;56589;51.992;5.924;2023-03-11T06:04:25;6.50;;;1.08;;
69401;SDS011;56589;51.992;5.924;2023-03-11T06:06:51;6.95;;;0.90;;
69401;SDS011;56589;51.992;5.924;2023-03-11T06:09:20;3.88;;;0.80;;
69401;SDS011;56589;51.992;5.924;2023-03-11T06:11:46;5.85;;;0.98;;
69401;SDS011;56589;51.992;5.924;2023-03-11T06:14:12;3.28;;;1.15;;
69401;SDS011;56589;51.992;5.924;2023-03-11T06:16:39;4.85;;;0.93;;
69401;SDS011;56589;51.992;5.924;2023-03-11T06:19:05;11.05;;;1.08;;
69401;SDS011;56589;51.992;5.924;2023-03-11T06:21:31;6.32;;;1.15;;
69401;SDS011;56589;51.992;5.924;2023-03-11T06:23:57;9.15;;;1.08;;
69401;SDS011;56589;51.992;5.924;2023-03-11T06:26:28;4.35;;;1.00;;
69401;SDS011;56589;51.992;5.924;2023-03-11T06:28:54;7.50;;;1.08;;
69401;SDS011;56589;51.992;5.924;2023-03-11T06:31:20;4.10;;;0.98;;
69401;SDS011;56589;51.992;5.924;2023-03-11T06:33:49;5.30;;;0.80;;
69401;SDS011;56589;51.992;5.924;2023-03-11T06:36:16;5.03;;;0.95;;
69401;SDS011;56589;51.992;5.924;2023-03-11T06:38:43;2.63;;;1.55;;
69401;SDS011;56589;51.992;5.924;2023-03-11T06:41:10;2.60;;;0.85;;
69401;SDS011;56589;51.992;5.924;2023-03-11T06:43:39;3.67;;;0.80;;
69401;SDS011;56589;51.992;5.924;2023-03-11T06:46:08;4.47;;;0.93;;
69401;SDS011;56589;51.992;5.924;2023-03-11T06:48:37;3.72;;;0.80;;
69401;SDS011;56589;51.992;5.924;2023-03-11T06:51:04;7.00;;;1.10;;
69401;SDS011;56589;51.992;5.924;2023-03-11T06:53:30;6.88;;;1.00;;
69401;SDS011;56589;51.992;5.924;2023-03-11T06:55:57;8.32;;;0.95;;
69401;SDS011;56589;51.992;5.924;2023-03-11T06:58:25;6.93;;;1.05;;
69401;SDS011;56589;51.992;5.924;2023-03-11T07:00:54;1.80;;;0.80;;
69401;SDS011;56589;51.992;5.924;2023-03-11T07:05:50;2.00;;;0.90;;
69401;SDS011;56589;51.992;5.924;2023-03-11T07:08:16;4.50;;;1.30;;
69401;SDS011;56589;51.992;5.924;2023-03-11T07:10:42;2.47;;;0.80;;
69401;SDS011;56589;51.992;5.924;2023-03-11T07:13:08;7.55;;;1.08;;
69401;SDS011;56589;51.992;5.924;2023-03-11T07:15:34;4.57;;;1.15;;
69401;SDS011;56589;51.992;5.924;2023-03-11T07:18:02;4.50;;;1.00;;
69401;SDS011;56589;51.992;5.924;2023-03-11T07:20:28;3.83;;;0.98;;
69401;SDS011;56589;51.992;5.924;2023-03-11T07:22:54;6.88;;;1.23;;
69401;SDS011;56589;51.992;5.924;2023-03-11T07:25:20;3.40;;;0.82;;
69401;SDS011;56589;51.992;5.924;2023-03-11T07:27:46;3.53;;;1.10;;
69401;SDS011;56589;51.992;5.924;2023-03-11T07:30:12;6.80;;;1.42;;
69401;SDS011;56589;51.992;5.924;2023-03-11T07:32:38;3.10;;;0.73;;
69401;SDS011;56589;51.992;5.924;2023-03-11T07:35:08;5.80;;;1.00;;
69401;SDS011;56589;51.992;5.924;2023-03-11T07:37:34;1.48;;;0.68;;
69401;SDS011;56589;51.992;5.924;2023-03-11T07:40:00;4.57;;;0.90;;
69401;SDS011;56589;51.992;5.924;2023-03-11T07:42:25;5.63;;;1.17;;
69401;SDS011;56589;51.992;5.924;2023-03-11T07:44:51;7.13;;;0.82;;
69401;SDS011;56589;51.992;5.924;2023-03-11T07:47:17;3.00;;;0.98;;
69401;SDS011;56589;51.992;5.924;2023-03-11T07:49:44;2.50;;;0.80;;
69401;SDS011;56589;51.992;5.924;2023-03-11T07:52:12;5.90;;;1.00;;
69401;SDS011;56589;51.992;5.924;2023-03-11T07:54:38;3.03;;;0.95;;
69401;SDS011;56589;51.992;5.924;2023-03-11T07:57:04;6.05;;;1.10;;
69401;SDS011;56589;51.992;5.924;2023-03-11T07:59:30;4.32;;;1.30;;
69401;SDS011;56589;51.992;5.924;2023-03-11T08:01:55;3.05;;;0.95;;
69401;SDS011;56589;51.992;5.924;2023-03-11T08:04:21;4.97;;;0.85;;
69401;SDS011;56589;51.992;5.924;2023-03-11T08:06:47;3.97;;;0.80;;
69401;SDS011;56589;51.992;5.924;2023-03-11T08:09:16;4.15;;;0.80;;
69401;SDS011;56589;51.992;5.924;2023-03-11T08:11:41;4.63;;;0.82;;
69401;SDS011;56589;51.992;5.924;2023-03-11T08:14:07;5.90;;;0.90;;
69401;SDS011;56589;51.992;5.924;2023-03-11T08:16:33;8.15;;;1.30;;
69401;SDS011;56589;51.992;5.924;2023-03-11T08:18:59;4.03;;;1.10;;
69401;SDS011;56589;51.992;5.924;2023-03-11T08:21:27;2.80;;;1.00;;
69401;SDS011;56589;51.992;5.924;2023-03-11T08:23:55;2.33;;;0.70;;
69401;SDS011;56589;51.992;5.924;2023-03-11T08:26:26;8.15;;;1.48;;
69401;SDS011;56589;51.992;5.924;2023-03-11T08:28:53;3.80;;;0.90;;
69401;SDS011;56589;51.992;5.924;2023-03-11T08:31:20;6.13;;;0.80;;
69401;SDS011;56589;51.992;5.924;2023-03-11T08:33:50;5.93;;;0.95;;
69401;SDS011;56589;51.992;5.924;2023-03-11T08:36:19;4.45;;;0.80;;
69401;SDS011;56589;51.992;5.924;2023-03-11T08:38:45;2.42;;;0.70;;
69401;SDS011;56589;51.992;5.924;2023-03-11T08:41:11;11.00;;;1.10;;
69401;SDS011;56589;51.992;5.924;2023-03-11T08:43:40;8.02;;;1.00;;
69401;SDS011;56589;51.992;5.924;2023-03-11T08:46:07;1.92;;;0.85;;
69401;SDS011;56589;51.992;5.924;2023-03-11T08:48:39;3.47;;;1.30;;
69401;SDS011;56589;51.992;5.924;2023-03-11T08:51:07;5.95;;;0.73;;
69401;SDS011;56589;51.992;5.924;2023-03-11T08:53:35;4.93;;;0.82;;
69401;SDS011;56589;51.992;5.924;2023-03-11T08:56:00;2.47;;;0.73;;
69401;SDS011;56589;51.992;5.924;2023-03-11T08:58:26;4.05;;;0.80;;
69401;SDS011;56589;51.992;5.924;2023-03-11T09:00:55;2.85;;;0.70;;
69401;SDS011;56589;51.992;5.924;2023-03-11T09:03:20;5.82;;;1.00;;
69401;SDS011;56589;51.992;5.924;2023-03-11T09:05:46;4.13;;;1.45;;
69401;SDS011;56589;51.992;5.924;2023-03-11T09:08:12;4.78;;;1.00;;
69401;SDS011;56589;51.992;5.924;2023-03-11T09:10:38;4.60;;;0.65;;
69401;SDS011;56589;51.992;5.924;2023-03-11T09:13:04;4.07;;;0.63;;
69401;SDS011;56589;51.992;5.924;2023-03-11T09:15:30;4.18;;;0.63;;
69401;SDS011;56589;51.992;5.924;2023-03-11T09:17:58;5.22;;;0.80;;
69401;SDS011;56589;51.992;5.924;2023-03-11T09:20:24;1.90;;;0.70;;
69401;SDS011;56589;51.992;5.924;2023-03-11T09:22:50;2.28;;;0.70;;
69401;SDS011;56589;51.992;5.924;2023-03-11T09:25:16;9.55;;;0.98;;
69401;SDS011;56589;51.992;5.924;2023-03-11T09:27:42;4.53;;;0.70;;
69401;SDS011;56589;51.992;5.924;2023-03-11T09:30:08;2.47;;;0.60;;
69401;SDS011;56589;51.992;5.924;2023-03-11T09:32:36;4.30;;;0.68;;
69401;SDS011;56589;51.992;5.924;2023-03-11T09:35:04;2.05;;;0.43;;
69401;SDS011;56589;51.992;5.924;2023-03-11T09:37:34;4.13;;;0.50;;
69401;SDS011;56589;51.992;5.924;2023-03-11T09:40:02;2.63;;;0.60;;
69401;SDS011;56589;51.992;5.924;2023-03-11T09:42:32;3.63;;;0.68;;
69401;SDS011;56589;51.992;5.924;2023-03-11T09:45:10;1.80;;;0.70;;
69401;SDS011;56589;51.992;5.924;2023-03-11T09:47:44;3.10;;;0.60;;
69401;SDS011;56589;51.992;5.924;2023-03-11T09:50:41;4.22;;;0.73;;
69401;SDS011;56589;51.992;5.924;2023-03-11T09:53:28;2.65;;;0.43;;
69401;SDS011;56589;51.992;5.924;2023-03-11T09:56:05;1.90;;;0.60;;
69401;SDS011;56589;51.992;5.924;2023-03-11T09:58:35;6.65;;;0.75;;
69401;SDS011;56589;51.992;5.924;2023-03-11T10:01:09;5.45;;;0.45;;
69401;SDS011;56589;51.992;5.924;2023-03-11T10:03:42;2.22;;;0.50;;
69401;SDS011;56589;51.992;5.924;2023-03-11T10:06:16;7.60;;;1.33;;
69401;SDS011;56589;51.992;5.924;2023-03-11T10:08:48;5.00;;;0.88;;
69401;SDS011;56589;51.992;5.924;2023-03-11T10:11:28;6.47;;;1.17;;
69401;SDS011;56589;51.992;5.924;2023-03-11T10:14:19;6.72;;;0.82;;
69401;SDS011;56589;51.992;5.924;2023-03-11T10:17:03;2.90;;;0.90;;
69401;SDS011;56589;51.992;5.924;2023-03-11T10:19:45;6.32;;;0.60;;
69401;SDS011;56589;51.992;5.924;2023-03-11T10:22:26;2.78;;;0.43;;
69401;SDS011;56589;51.992;5.924;2023-03-11T10:25:07;5.82;;;0.77;;
69401;SDS011;56589;51.992;5.924;2023-03-11T10:27:39;1.88;;;0.52;;
69401;SDS011;56589;51.992;5.924;2023-03-11T10:30:16;4.75;;;1.00;;
69401;SDS011;56589;51.992;5.924;2023-03-11T10:32:51;5.22;;;0.80;;
69401;SDS011;56589;51.992;5.924;2023-03-11T10:35:26;2.53;;;0.50;;
69401;SDS011;56589;51.992;5.924;2023-03-11T10:38:06;3.83;;;0.40;;
69401;SDS011;56589;51.992;5.924;2023-03-11T10:40:40;1.35;;;0.57;;
69401;SDS011;56589;51.992;5.924;2023-03-11T10:43:10;2.53;;;0.43;;
69401;SDS011;56589;51.992;5.924;2023-03-11T10:45:41;3.75;;;0.65;;
69401;SDS011;56589;51.992;5.924;2023-03-11T10:48:09;3.88;;;0.60;;
69401;SDS011;56589;51.992;5.924;2023-03-11T10:50:39;1.67;;;0.40;;
69401;SDS011;56589;51.992;5.924;2023-03-11T10:53:17;1.88;;;0.50;;
69401;SDS011;56589;51.992;5.924;2023-03-11T10:55:45;5.00;;;0.50;;
69401;SDS011;56589;51.992;5.924;2023-03-11T10:58:15;3.40;;;0.60;;
69401;SDS011;56589;51.992;5.924;2023-03-11T11:00:43;4.15;;;0.70;;
69401;SDS011;56589;51.992;5.924;2023-03-11T11:03:19;2.00;;;0.60;;
69401;SDS011;56589;51.992;5.924;2023-03-11T11:05:58;3.65;;;0.50;;
69401;SDS011;56589;51.992;5.924;2023-03-11T11:08:30;2.45;;;0.60;;
69401;SDS011;56589;51.992;5.924;2023-03-11T11:10:57;5.45;;;0.77;;
69401;SDS011;56589;51.992;5.924;2023-03-11T11:13:26;2.75;;;0.40;;
69401;SDS011;56589;51.992;5.924;2023-03-11T11:15:55;3.40;;;0.60;;
69401;SDS011;56589;51.992;5.924;2023-03-11T11:18:25;1.85;;;0.50;;
69401;SDS011;56589;51.992;5.924;2023-03-11T11:21:02;4.47;;;0.93;;
69401;SDS011;56589;51.992;5.924;2023-03-11T11:23:35;5.90;;;0.82;;
69401;SDS011;56589;51.992;5.924;2023-03-11T11:26:07;4.95;;;0.65;;
69401;SDS011;56589;51.992;5.924;2023-03-11T11:28:43;3.72;;;0.70;;
69401;SDS011;56589;51.992;5.924;2023-03-11T11:31:18;3.97;;;0.88;;
69401;SDS011;56589;51.992;5.924;2023-03-11T11:33:48;3.60;;;0.50;;
69401;SDS011;56589;51.992;5.924;2023-03-11T11:36:17;4.85;;;0.90;;
69401;SDS011;56589;51.992;5.924;2023-03-11T11:38:48;3.10;;;0.60;;
69401;SDS011;56589;51.992;5.924;2023-03-11T11:41:17;3.00;;;0.90;;
69401;SDS011;56589;51.992;5.924;2023-03-11T11:43:48;2.28;;;0.40;;
69401;SDS011;56589;51.992;5.924;2023-03-11T11:46:18;4.15;;;0.60;;
69401;SDS011;56589;51.992;5.924;2023-03-11T11:48:54;1.88;;;0.50;;
69401;SDS011;56589;51.992;5.924;2023-03-11T11:51:32;3.42;;;0.60;;
69401;SDS011;56589;51.992;5.924;2023-03-11T11:54:07;1.83;;;0.40;;
69401;SDS011;56589;51.992;5.924;2023-03-11T11:56:42;2.72;;;0.35;;
69401;SDS011;56589;51.992;5.924;2023-03-11T11:59:08;5.22;;;0.80;;
69401;SDS011;56589;51.992;5.924;2023-03-11T12:04:25;4.45;;;0.60;;
69401;SDS011;56589;51.992;5.924;2023-03-11T12:07:06;2.60;;;0.60;;
69401;SDS011;56589;51.992;5.924;2023-03-11T12:09:53;3.60;;;1.15;;
69401;SDS011;56589;51.992;5.924;2023-03-11T12:12:35;4.03;;;0.88;;
69401;SDS011;56589;51.992;5.924;2023-03-11T12:15:15;1.52;;;0.60;;
69401;SDS011;56589;51.992;5.924;2023-03-11T12:17:51;2.88;;;0.70;;
69401;SDS011;56589;51.992;5.924;2023-03-11T12:20:27;4.90;;;1.08;;
69401;SDS011;56589;51.992;5.924;2023-03-11T12:26:13;6.28;;;1.00;;
69401;SDS011;56589;51.992;5.924;2023-03-11T12:28:46;5.45;;;1.10;;
69401;SDS011;56589;51.992;5.924;2023-03-11T12:31:20;7.57;;;1.02;;
69401;SDS011;56589;51.992;5.924;2023-03-11T12:33:54;8.50;;;2.53;;
69401;SDS011;56589;51.992;5.924;2023-03-11T12:36:24;11.82;;;3.83;;
69401;SDS011;56589;51.992;5.924;2023-03-11T12:38:56;7.95;;;1.63;;
69401;SDS011;56589;51.992;5.924;2023-03-11T12:41:31;4.25;;;1.13;;
69401;SDS011;56589;51.992;5.924;2023-03-11T12:44:00;6.70;;;1.58;;
69401;SDS011;56589;51.992;5.924;2023-03-11T12:49:45;7.75;;;0.80;;
69401;SDS011;56589;51.992;5.924;2023-03-11T12:52:17;3.10;;;0.68;;
69401;SDS011;56589;51.992;5.924;2023-03-11T12:58:06;10.15;;;1.02;;
69401;SDS011;56589;51.992;5.924;2023-03-11T13:01:14;3.80;;;0.50;;
69401;SDS011;56589;51.992;5.924;2023-03-11T13:10:14;4.75;;;1.30;;
69401;SDS011;56589;51.992;5.924;2023-03-11T13:12:58;3.30;;;0.60;;
69401;SDS011;56589;51.992;5.924;2023-03-11T13:15:36;1.20;;;0.57;;
69401;SDS011;56589;51.992;5.924;2023-03-11T13:18:11;6.93;;;0.73;;
69401;SDS011;56589;51.992;5.924;2023-03-11T13:20:47;4.03;;;0.60;;
69401;SDS011;56589;51.992;5.924;2023-03-11T13:23:21;4.43;;;0.73;;
69401;SDS011;56589;51.992;5.924;2023-03-11T13:28:58;5.57;;;0.98;;
69401;SDS011;56589;51.992;5.924;2023-03-11T13:31:54;3.63;;;0.40;;
69401;SDS011;56589;51.992;5.924;2023-03-11T13:34:36;3.03;;;0.70;;
69401;SDS011;56589;51.992;5.924;2023-03-11T13:37:20;4.35;;;0.73;;
69401;SDS011;56589;51.992;5.924;2023-03-11T13:39:59;4.38;;;0.60;;
69401;SDS011;56589;51.992;5.924;2023-03-11T13:42:53;0.95;;;0.30;;
69401;SDS011;56589;51.992;5.924;2023-03-11T13:45:26;2.47;;;0.60;;
69401;SDS011;56589;51.992;5.924;2023-03-11T13:47:58;1.02;;;0.50;;
69401;SDS011;56589;51.992;5.924;2023-03-11T13:50:31;4.75;;;0.73;;
69401;SDS011;56589;51.992;5.924;2023-03-11T13:55:33;1.65;;;0.50;;
69401;SDS011;56589;51.992;5.924;2023-03-11T13:58:13;4.22;;;0.77;;
69401;SDS011;56589;51.992;5.924;2023-03-11T14:00:46;2.70;;;0.50;;
69401;SDS011;56589;51.992;5.924;2023-03-11T14:03:17;2.55;;;0.68;;
69401;SDS011;56589;51.992;5.924;2023-03-11T14:05:45;3.72;;;0.70;;
69401;SDS011;56589;51.992;5.924;2023-03-11T14:08:17;1.38;;;0.70;;
69401;SDS011;56589;51.992;5.924;2023-03-11T14:10:53;3.78;;;0.60;;
69401;SDS011;56589;51.992;5.924;2023-03-11T14:13:20;3.28;;;0.63;;
69401;SDS011;56589;51.992;5.924;2023-03-11T14:15:53;2.90;;;0.50;;
69401;SDS011;56589;51.992;5.924;2023-03-11T14:18:31;1.88;;;0.50;;
69401;SDS011;56589;51.992;5.924;2023-03-11T14:21:05;3.33;;;0.50;;
69401;SDS011;56589;51.992;5.924;2023-03-11T14:23:39;5.53;;;1.00;;
69401;SDS011;56589;51.992;5.924;2023-03-11T14:26:10;3.13;;;0.50;;
69401;SDS011;56589;51.992;5.924;2023-03-11T14:28:40;2.10;;;0.52;;
69401;SDS011;56589;51.992;5.924;2023-03-11T14:31:20;6.38;;;0.95;;
69401;SDS011;56589;51.992;5.924;2023-03-11T14:33:58;2.28;;;0.50;;
69401;SDS011;56589;51.992;5.924;2023-03-11T14:36:25;3.08;;;0.98;;
69401;SDS011;56589;51.992;5.924;2023-03-11T14:38:51;2.00;;;0.77;;
69401;SDS011;56589;51.992;5.924;2023-03-11T14:41:17;1.98;;;0.60;;
69401;SDS011;56589;51.992;5.924;2023-03-11T14:43:43;6.45;;;0.63;;
69401;SDS011;56589;51.992;5.924;2023-03-11T14:46:14;4.78;;;1.05;;
69401;SDS011;56589;51.992;5.924;2023-03-11T14:48:46;4.93;;;1.40;;
69401;SDS011;56589;51.992;5.924;2023-03-11T14:51:15;3.58;;;0.63;;
69401;SDS011;56589;51.992;5.924;2023-03-11T14:53:49;3.70;;;0.70;;
69401;SDS011;56589;51.992;5.924;2023-03-11T14:56:30;1.42;;;0.70;;
69401;SDS011;56589;51.992;5.924;2023-03-11T14:59:04;3.22;;;0.60;;
69401;SDS011;56589;51.992;5.924;2023-03-11T15:01:42;2.38;;;0.60;;
69401;SDS011;56589;51.992;5.924;2023-03-11T15:04:12;3.70;;;0.80;;
69401;SDS011;56589;51.992;5.924;2023-03-11T15:06:45;2.65;;;0.75;;
69401;SDS011;56589;51.992;5.924;2023-03-11T15:09:12;2.83;;;0.88;;
69401;SDS011;56589;51.992;5.924;2023-03-11T15:11:43;3.42;;;0.70;;
69401;SDS011;56589;51.992;5.924;2023-03-11T15:14:15;2.22;;;0.70;;
69401;SDS011;56589;51.992;5.924;2023-03-11T15:16:46;2.83;;;0.85;;
69401;SDS011;56589;51.992;5.924;2023-03-11T15:22:01;1.67;;;0.77;;
69401;SDS011;56589;51.992;5.924;2023-03-11T15:24:48;4.57;;;1.17;;
69401;SDS011;56589;51.992;5.924;2023-03-11T15:27:19;4.13;;;0.90;;
69401;SDS011;56589;51.992;5.924;2023-03-11T15:29:54;6.03;;;1.08;;
69401;SDS011;56589;51.992;5.924;2023-03-11T15:32:33;5.88;;;0.80;;
69401;SDS011;56589;51.992;5.924;2023-03-11T15:35:12;3.13;;;0.90;;